Time;durP1;ratioP1;P1;durP2;ratioP2;P2;SDS_P1;SDS_P2;PMS_P1;PMS_P2;Temp;Humidity;BMP_temperature;BMP_pressure;BME280_temperature;BME280_humidity;BME280_pressure;Samples;Min_cycle;Max_cycle;Signal;HPM_P1;HPM_P2
2024/02/14 00:01:36;;;;;;;7.73;2.93;;;8.50;99.90;;;;;;5034510;28;20392;-79
2024/02/14 00:04:03;;;;;;;5.43;2.50;;;8.50;99.90;;;;;;5034812;28;20030;-78
2024/02/14 00:06:28;;;;;;;5.50;2.53;;;8.50;99.90;;;;;;5034757;28;20022;-78
2024/02/14 00:08:55;;;;;;;7.23;3.00;;;8.50;99.90;;;;;;5034550;28;20385;-79
2024/02/14 00:11:21;;;;;;;6.00;3.67;;;8.60;99.90;;;;;;5034166;28;20028;-79
2024/02/14 00:13:46;;;;;;;3.73;2.57;;;8.60;99.90;;;;;;5033203;28;20022;-81
2024/02/14 00:16:12;;;;;;;5.07;3.20;;;8.60;99.90;;;;;;5034465;28;20119;-78
2024/02/14 00:18:37;;;;;;;10.10;3.13;;;8.60;99.90;;;;;;5034124;28;20029;-79
2024/02/14 00:21:03;;;;;;;6.70;3.10;;;8.60;99.90;;;;;;5034103;28;20044;-78
2024/02/14 00:23:29;;;;;;;5.80;3.73;;;8.60;99.90;;;;;;5032507;28;20025;-78
2024/02/14 00:25:54;;;;;;;5.93;3.10;;;8.60;99.90;;;;;;5032918;28;20458;-79
2024/02/14 00:28:20;;;;;;;7.80;3.40;;;8.60;99.90;;;;;;5032945;28;20017;-79
2024/02/14 00:30:45;;;;;;;7.23;3.53;;;8.60;99.90;;;;;;5033854;28;20033;-82
2024/02/14 00:33:11;;;;;;;5.47;3.23;;;8.60;99.90;;;;;;5034293;28;20041;-80
2024/02/14 00:35:37;;;;;;;9.37;3.53;;;8.60;99.90;;;;;;5033746;28;20025;-78
2024/02/14 00:38:03;;;;;;;8.53;3.87;;;8.60;99.90;;;;;;5016185;28;20108;-79
2024/02/14 00:40:28;;;;;;;5.33;2.93;;;8.60;99.90;;;;;;5033957;28;20028;-78
2024/02/14 00:42:54;;;;;;;5.67;3.50;;;8.60;99.90;;;;;;5034196;28;20029;-81
2024/02/14 00:45:19;;;;;;;5.27;3.23;;;8.60;99.90;;;;;;5033941;28;20572;-79
2024/02/14 00:47:45;;;;;;;5.33;3.50;;;8.60;99.90;;;;;;5033125;28;20477;-80
2024/02/14 00:50:13;;;;;;;6.60;3.43;;;8.60;99.90;;;;;;5015797;28;20099;-80
2024/02/14 00:52:39;;;;;;;8.50;4.70;;;8.60;99.90;;;;;;5015921;28;20018;-79
2024/02/14 00:55:05;;;;;;;7.07;4.53;;;8.60;99.90;;;;;;5032280;28;20021;-78
2024/02/14 00:57:31;;;;;;;5.80;3.97;;;8.60;99.90;;;;;;5033620;28;20026;-78
2024/02/14 00:59:57;;;;;;;7.53;4.10;;;8.70;99.90;;;;;;5015686;28;20383;-79
2024/02/14 01:02:22;;;;;;;7.03;4.20;;;8.60;99.90;;;;;;5036137;28;20113;-80
2024/02/14 01:04:48;;;;;;;10.10;5.30;;;8.70;99.90;;;;;;5053276;28;20059;-79
2024/02/14 01:07:14;;;;;;;10.37;5.40;;;8.70;99.90;;;;;;5053290;28;20021;-78
2024/02/14 01:09:39;;;;;;;7.60;4.70;;;8.70;99.90;;;;;;5035479;28;20033;-79
2024/02/14 01:12:05;;;;;;;7.87;4.27;;;8.70;99.90;;;;;;5053584;28;20074;-78
2024/02/14 01:14:31;;;;;;;9.33;4.90;;;8.70;99.90;;;;;;5035412;28;20025;-80
2024/02/14 01:16:57;;;;;;;7.90;4.73;;;8.70;99.90;;;;;;5035149;28;20059;-78
2024/02/14 01:19:24;;;;;;;8.93;5.30;;;8.80;99.90;;;;;;5035122;28;20048;-77
2024/02/14 01:21:49;;;;;;;9.17;4.90;;;8.80;99.90;;;;;;5053417;28;20043;-78
2024/02/14 01:24:16;;;;;;;7.80;4.67;;;8.80;99.90;;;;;;5053008;28;20485;-78
2024/02/14 01:26:41;;;;;;;9.47;4.87;;;8.80;99.90;;;;;;5035485;28;20025;-78
2024/02/14 01:29:07;;;;;;;12.57;5.50;;;8.80;99.90;;;;;;5053488;28;20028;-80
2024/02/14 01:31:34;;;;;;;8.43;5.20;;;8.90;99.90;;;;;;5052735;28;20110;-81
2024/02/14 01:34:01;;;;;;;8.67;5.23;;;8.90;99.90;;;;;;5034713;28;20508;-78
2024/02/14 01:36:30;;;;;;;8.73;5.10;;;8.90;99.90;;;;;;5034332;28;20017;-79
2024/02/14 01:38:56;;;;;;;10.33;5.30;;;8.90;99.90;;;;;;5052914;28;20500;-78
2024/02/14 01:41:22;;;;;;;8.50;5.20;;;9.00;99.90;;;;;;5034758;28;20029;-81
2024/02/14 01:43:48;;;;;;;9.93;5.20;;;9.00;99.90;;;;;;5052994;28;20029;-79
2024/02/14 01:46:14;;;;;;;9.40;5.37;;;9.00;99.90;;;;;;5053220;28;20013;-78
2024/02/14 01:48:41;;;;;;;10.00;4.97;;;9.00;99.90;;;;;;5034665;28;20024;-79
2024/02/14 01:51:09;;;;;;;9.47;5.33;;;9.10;99.90;;;;;;5034693;28;20044;-79
2024/02/14 01:53:37;;;;;;;9.83;5.57;;;9.10;99.90;;;;;;5052601;28;20056;-78
2024/02/14 01:56:04;;;;;;;8.83;5.13;;;9.10;99.90;;;;;;5034834;28;20435;-78
2024/02/14 01:58:30;;;;;;;8.20;5.27;;;9.10;99.90;;;;;;5053199;28;20523;-79
2024/02/14 02:00:58;;;;;;;8.60;4.57;;;9.10;99.90;;;;;;5034313;28;20037;-79
2024/02/14 02:03:25;;;;;;;10.27;5.73;;;9.10;99.90;;;;;;5052718;28;20032;-80
2024/02/14 02:05:54;;;;;;;12.13;5.90;;;9.20;99.90;;;;;;5052433;28;20079;-78
2024/02/14 02:08:20;;;;;;;9.60;5.43;;;9.20;99.90;;;;;;5034520;28;20079;-78
2024/02/14 02:10:46;;;;;;;8.27;5.43;;;9.30;99.90;;;;;;5034362;28;20033;-78
2024/02/14 02:13:12;;;;;;;8.70;5.40;;;9.30;99.90;;;;;;5052421;28;20117;-78
2024/02/14 02:15:37;;;;;;;11.10;5.93;;;9.30;99.90;;;;;;5052248;28;20021;-79
2024/02/14 02:18:05;;;;;;;10.27;5.70;;;9.30;99.90;;;;;;5052676;28;20048;-79
2024/02/14 02:20:32;;;;;;;10.27;6.70;;;9.40;99.90;;;;;;5034645;28;20031;-78
2024/02/14 02:22:58;;;;;;;8.87;6.17;;;9.40;99.90;;;;;;5050953;28;20021;-78
2024/02/14 02:25:26;;;;;;;10.20;6.13;;;9.40;99.90;;;;;;5034517;28;20020;-79
2024/02/14 02:27:53;;;;;;;14.87;6.77;;;9.40;99.90;;;;;;5052478;28;20108;-79
2024/02/14 02:30:19;;;;;;;9.23;6.00;;;9.40;99.90;;;;;;5034007;28;20017;-78
2024/02/14 02:32:44;;;;;;;11.03;5.90;;;9.40;99.90;;;;;;5034183;28;20060;-78
2024/02/14 02:35:10;;;;;;;9.40;5.13;;;9.40;99.90;;;;;;5052137;28;20068;-79
2024/02/14 02:37:36;;;;;;;10.67;5.77;;;9.40;99.90;;;;;;5052086;28;20105;-78
2024/02/14 02:40:01;;;;;;;10.20;6.40;;;9.40;99.90;;;;;;5034359;28;20021;-79
2024/02/14 02:42:29;;;;;;;12.13;6.80;;;9.40;99.90;;;;;;5052191;28;20029;-78
2024/02/14 02:44:54;;;;;;;11.20;6.73;;;9.40;99.90;;;;;;5034100;28;20481;-79
2024/02/14 02:47:20;;;;;;;10.20;6.47;;;9.40;99.90;;;;;;5036276;28;20036;-78
2024/02/14 02:49:46;;;;;;;11.80;6.50;;;9.30;99.90;;;;;;5038123;28;20024;-78
2024/02/14 02:52:12;;;;;;;12.23;6.63;;;9.40;99.90;;;;;;5037800;28;20432;-78
2024/02/14 02:54:43;;;;;;;11.17;6.00;;;9.40;99.90;;;;;;5055990;28;20039;-80
2024/02/14 02:57:10;;;;;;;9.93;6.30;;;9.40;99.90;;;;;;5037955;28;20017;-80
2024/02/14 02:59:36;;;;;;;11.20;6.43;;;9.40;99.90;;;;;;5056054;28;20025;-81
2024/02/14 03:02:02;;;;;;;12.00;6.63;;;9.40;99.90;;;;;;5056436;28;20078;-80
2024/02/14 03:04:29;;;;;;;11.70;7.33;;;9.40;99.90;;;;;;5055547;28;20017;-78
2024/02/14 03:06:55;;;;;;;11.13;6.60;;;9.40;99.90;;;;;;5055941;28;20029;-81
2024/02/14 03:09:22;;;;;;;10.53;7.23;;;9.40;99.90;;;;;;5055788;28;20028;-78
2024/02/14 03:11:49;;;;;;;15.40;7.80;;;9.40;99.90;;;;;;5055775;28;20053;-78
2024/02/14 03:14:14;;;;;;;11.43;6.93;;;9.40;99.90;;;;;;5037463;28;20032;-78
2024/02/14 03:16:40;;;;;;;12.43;7.80;;;9.40;99.90;;;;;;5037378;28;20465;-80
2024/02/14 03:19:06;;;;;;;11.27;6.93;;;9.40;99.90;;;;;;5037534;28;20115;-78
2024/02/14 03:21:35;;;;;;;11.03;6.73;;;9.40;99.90;;;;;;5055394;28;20114;-78
2024/02/14 03:24:04;;;;;;;8.93;6.20;;;9.40;99.90;;;;;;5037250;28;20096;-79
2024/02/14 03:26:33;;;;;;;10.60;7.67;;;9.40;99.90;;;;;;5037323;28;20021;-79
2024/02/14 03:29:06;;;;;;;13.73;7.87;;;9.40;99.90;;;;;;5055154;28;20017;-79
2024/02/14 03:31:32;;;;;;;12.87;8.43;;;9.40;99.90;;;;;;5055589;28;20381;-79
2024/02/14 03:33:57;;;;;;;11.43;8.53;;;9.40;99.90;;;;;;5049785;28;20045;-79
2024/02/14 03:36:24;;;;;;;13.73;7.90;;;9.40;99.90;;;;;;5035154;28;20030;-78
2024/02/14 03:38:50;;;;;;;17.03;9.63;;;9.40;99.90;;;;;;5034062;28;20025;-78
2024/02/14 03:41:15;;;;;;;16.10;8.60;;;9.40;99.90;;;;;;5033206;28;20134;-78
2024/02/14 03:43:42;;;;;;;15.87;9.83;;;9.40;99.90;;;;;;5035101;28;20028;-78
2024/02/14 03:46:08;;;;;;;15.60;10.03;;;9.40;99.90;;;;;;5035135;28;20021;-78
2024/02/14 03:48:33;;;;;;;14.23;9.00;;;9.40;99.90;;;;;;5033282;28;20430;-78
2024/02/14 03:51:00;;;;;;;13.97;9.67;;;9.40;99.90;;;;;;5034863;28;20028;-78
2024/02/14 03:53:26;;;;;;;14.67;9.33;;;9.40;99.90;;;;;;5033592;28;20064;-78
2024/02/14 03:55:53;;;;;;;16.63;10.23;;;9.40;99.90;;;;;;5034811;28;20132;-78
2024/02/14 03:58:22;;;;;;;18.20;9.67;;;9.50;99.90;;;;;;5032673;28;20021;-78
2024/02/14 04:00:52;;;;;;;16.90;10.63;;;9.50;99.90;;;;;;5033284;28;20030;-77
2024/02/14 04:03:18;;;;;;;17.27;11.23;;;9.50;99.90;;;;;;5034382;28;20022;-78
2024/02/14 04:05:44;;;;;;;18.60;11.70;;;9.50;99.90;;;;;;5033463;28;20393;-78
2024/02/14 04:08:11;;;;;;;18.00;10.93;;;9.50;99.90;;;;;;5034708;28;20030;-79
2024/02/14 04:10:37;;;;;;;19.23;12.30;;;9.50;99.90;;;;;;5033352;28;20124;-78
2024/02/14 04:13:04;;;;;;;15.90;10.20;;;9.60;99.90;;;;;;5033130;28;20392;-78
2024/02/14 04:15:31;;;;;;;17.87;12.30;;;9.60;99.90;;;;;;5034704;28;20056;-79
2024/02/14 04:17:56;;;;;;;20.67;12.20;;;9.60;99.90;;;;;;5034660;28;20473;-78
2024/02/14 04:20:22;;;;;;;17.47;11.10;;;9.60;99.90;;;;;;5034890;28;20026;-78
2024/02/14 04:22:48;;;;;;;18.13;11.90;;;9.60;99.90;;;;;;5034520;28;20493;-78
2024/02/14 04:25:14;;;;;;;17.07;11.87;;;9.60;99.90;;;;;;5034438;28;20022;-77
2024/02/14 04:27:40;;;;;;;20.00;12.13;;;9.70;99.90;;;;;;5032762;28;20029;-79
2024/02/14 04:30:06;;;;;;;17.03;12.47;;;9.70;99.90;;;;;;5032823;28;20018;-78
2024/02/14 04:32:32;;;;;;;18.23;12.33;;;9.70;99.90;;;;;;5033905;28;20024;-78
2024/02/14 04:34:59;;;;;;;19.53;13.27;;;9.70;99.90;;;;;;5047028;28;20083;-80
2024/02/14 04:37:24;;;;;;;19.10;12.33;;;9.70;99.90;;;;;;5054162;28;20033;-79
2024/02/14 04:39:50;;;;;;;24.97;13.20;;;9.70;99.90;;;;;;5036045;28;20477;-77
2024/02/14 04:42:16;;;;;;;17.63;12.90;;;9.70;99.90;;;;;;5053695;28;20029;-78
2024/02/14 04:44:41;;;;;;;17.90;11.83;;;9.80;99.90;;;;;;5054043;28;20056;-78
2024/02/14 04:47:09;;;;;;;19.80;14.13;;;9.80;99.90;;;;;;5053172;28;20021;-79
2024/02/14 04:49:35;;;;;;;24.07;14.63;;;9.80;99.90;;;;;;5035739;28;20025;-78
2024/02/14 04:52:01;;;;;;;20.60;13.57;;;9.80;99.90;;;;;;5053325;28;20477;-77
2024/02/14 04:54:28;;;;;;;22.67;14.37;;;9.80;99.90;;;;;;5035893;28;20032;-78
2024/02/14 04:56:54;;;;;;;22.57;14.53;;;9.80;99.90;;;;;;5035711;28;20112;-78
2024/02/14 04:59:20;;;;;;;23.30;13.47;;;9.80;99.90;;;;;;5053535;28;20025;-78
2024/02/14 05:01:46;;;;;;;19.70;12.57;;;9.90;99.90;;;;;;5053288;28;20040;-77
2024/02/14 05:04:12;;;;;;;18.30;12.40;;;9.90;99.90;;;;;;5053350;28;20040;-79
2024/02/14 05:06:39;;;;;;;18.57;13.10;;;9.90;99.90;;;;;;5053240;28;20492;-77
2024/02/14 05:09:05;;;;;;;18.53;12.93;;;9.90;99.90;;;;;;5035556;28;20032;-78
2024/02/14 05:11:31;;;;;;;22.33;13.73;;;9.90;99.90;;;;;;5053418;28;20048;-78
2024/02/14 05:13:57;;;;;;;21.70;13.60;;;9.90;99.90;;;;;;5053609;28;20021;-78
2024/02/14 05:16:23;;;;;;;20.90;13.13;;;9.90;99.90;;;;;;5034836;28;20044;-77
2024/02/14 05:18:48;;;;;;;22.43;14.07;;;10.00;99.90;;;;;;5035239;28;20071;-79
2024/02/14 05:21:14;;;;;;;18.47;12.40;;;9.90;99.90;;;;;;5052883;28;20037;-78
2024/02/14 05:23:40;;;;;;;20.67;12.93;;;9.90;99.90;;;;;;5035429;28;20028;-79
2024/02/14 05:26:06;;;;;;;18.30;12.97;;;10.00;99.90;;;;;;5052909;28;20037;-80
2024/02/14 05:28:32;;;;;;;18.17;12.93;;;10.00;99.90;;;;;;5052891;28;20024;-78
2024/02/14 05:30:59;;;;;;;22.23;14.23;;;10.00;99.90;;;;;;5034648;28;20503;-78
2024/02/14 05:33:25;;;;;;;19.20;13.90;;;10.00;99.90;;;;;;5052679;28;20033;-78
2024/02/14 05:35:52;;;;;;;16.60;12.10;;;10.00;99.90;;;;;;5035065;28;20397;-78
2024/02/14 05:38:21;;;;;;;18.23;11.83;;;10.00;99.90;;;;;;5035103;28;20025;-78
2024/02/14 05:40:47;;;;;;;18.50;11.97;;;10.00;99.90;;;;;;5052957;28;20037;-78
2024/02/14 05:43:13;;;;;;;17.43;12.77;;;10.00;99.90;;;;;;5034672;28;20017;-79
2024/02/14 05:45:39;;;;;;;15.73;12.10;;;10.00;99.90;;;;;;5034669;28;20112;-78
2024/02/14 05:48:05;;;;;;;15.17;11.47;;;10.00;99.90;;;;;;5052379;28;20533;-78
2024/02/14 05:50:30;;;;;;;18.90;12.00;;;10.00;99.90;;;;;;5052621;28;20432;-79
2024/02/14 05:52:59;;;;;;;17.37;12.37;;;10.00;99.90;;;;;;5034853;28;20036;-79
2024/02/14 05:55:25;;;;;;;15.93;10.73;;;10.00;99.90;;;;;;5052633;28;20147;-79
2024/02/14 05:57:52;;;;;;;18.43;11.63;;;10.00;99.90;;;;;;5034955;28;20123;-78
2024/02/14 06:00:18;;;;;;;17.77;12.33;;;10.00;99.90;;;;;;5052575;28;20110;-78
2024/02/14 06:02:45;;;;;;;17.57;11.80;;;10.00;99.90;;;;;;5052514;28;20029;-78
2024/02/14 06:05:10;;;;;;;17.07;13.43;;;10.10;99.90;;;;;;5052894;28;20029;-78
2024/02/14 06:07:40;;;;;;;18.67;13.57;;;10.00;99.90;;;;;;5052481;28;20033;-78
2024/02/14 06:10:06;;;;;;;20.07;11.80;;;10.00;99.90;;;;;;5035769;28;20035;-78
2024/02/14 06:12:33;;;;;;;16.10;11.77;;;10.00;99.90;;;;;;5052746;28;20021;-78
2024/02/14 06:14:58;;;;;;;15.17;11.63;;;10.10;99.90;;;;;;5052329;28;20044;-78
2024/02/14 06:17:26;;;;;;;16.13;11.90;;;10.10;99.90;;;;;;5030323;28;20029;-78
2024/02/14 06:19:52;;;;;;;18.10;12.03;;;10.10;99.90;;;;;;5031804;28;20394;-78
2024/02/14 06:22:17;;;;;;;19.33;13.30;;;10.10;99.90;;;;;;5050075;28;20045;-80
2024/02/14 06:24:43;;;;;;;16.67;12.07;;;10.10;99.90;;;;;;5038207;28;20033;-78
2024/02/14 06:27:09;;;;;;;19.03;13.70;;;10.10;99.90;;;;;;5038479;28;20021;-77
2024/02/14 06:29:34;;;;;;;20.37;12.47;;;10.10;99.90;;;;;;5056139;28;20032;-78
2024/02/14 06:32:00;;;;;;;22.47;13.10;;;10.10;99.90;;;;;;5055917;28;20059;-79
2024/02/14 06:34:28;;;;;;;16.77;13.00;;;10.10;99.90;;;;;;5056075;28;20076;-78
2024/02/14 06:36:53;;;;;;;18.23;13.60;;;10.10;99.90;;;;;;5038146;28;20025;-78
2024/02/14 06:39:20;;;;;;;17.90;13.37;;;10.10;99.90;;;;;;5056344;28;20021;-79
2024/02/14 06:41:47;;;;;;;15.97;12.40;;;10.10;99.90;;;;;;5056299;28;20404;-78
2024/02/14 06:44:13;;;;;;;21.73;12.73;;;10.00;99.90;;;;;;5055919;28;20021;-80
2024/02/14 06:46:38;;;;;;;16.80;11.70;;;10.10;99.90;;;;;;5037686;28;20499;-79
2024/02/14 06:49:04;;;;;;;16.77;11.60;;;10.10;99.90;;;;;;5038207;28;20358;-79
2024/02/14 06:51:30;;;;;;;20.17;12.63;;;10.10;99.90;;;;;;5056265;28;20029;-80
2024/02/14 06:53:56;;;;;;;16.97;11.70;;;10.10;99.90;;;;;;5055881;28;20028;-80
2024/02/14 06:56:22;;;;;;;13.63;9.80;;;10.10;99.90;;;;;;5037917;28;20021;-79
2024/02/14 06:58:53;;;;;;;16.33;12.63;;;10.10;99.90;;;;;;5055511;28;20028;-79
2024/02/14 07:01:23;;;;;;;15.00;11.23;;;10.20;99.90;;;;;;5055379;28;20505;-79
2024/02/14 07:03:49;;;;;;;20.30;12.40;;;10.10;99.90;;;;;;5054496;28;20013;-79
2024/02/14 07:06:15;;;;;;;16.43;11.87;;;10.10;99.90;;;;;;5055387;28;20051;-79
2024/02/14 07:08:41;;;;;;;19.23;11.77;;;10.10;99.90;;;;;;5055663;28;20442;-79
2024/02/14 07:11:07;;;;;;;17.67;12.30;;;10.10;99.90;;;;;;5046584;28;20256;-78
2024/02/14 07:13:34;;;;;;;20.63;12.43;;;10.20;99.90;;;;;;5043239;28;20041;-79
2024/02/14 07:16:01;;;;;;;19.50;13.00;;;10.20;99.90;;;;;;5044421;28;20048;-79
2024/02/14 07:18:26;;;;;;;16.20;11.40;;;10.20;99.90;;;;;;5026132;28;20060;-79
2024/02/14 07:20:52;;;;;;;19.17;12.33;;;10.20;99.90;;;;;;5054025;28;20063;-79
2024/02/14 07:23:21;;;;;;;15.67;11.13;;;10.20;99.90;;;;;;5054097;28;20100;-79
2024/02/14 07:25:47;;;;;;;16.03;11.57;;;10.20;99.90;;;;;;5054084;28;20129;-79
2024/02/14 07:28:12;;;;;;;16.07;11.13;;;10.30;99.90;;;;;;5036214;28;20053;-79
2024/02/14 07:30:38;;;;;;;15.43;10.40;;;10.20;99.90;;;;;;5054724;28;20017;-79
2024/02/14 07:33:04;;;;;;;15.37;11.27;;;10.20;99.90;;;;;;5035902;28;20516;-79
2024/02/14 07:35:30;;;;;;;20.73;12.83;;;10.30;99.90;;;;;;5054725;28;20051;-79
2024/02/14 07:37:55;;;;;;;18.63;13.30;;;10.30;99.90;;;;;;5036570;28;20091;-80
2024/02/14 07:40:22;;;;;;;20.80;13.40;;;10.30;99.90;;;;;;5054384;28;20097;-79
2024/02/14 07:42:48;;;;;;;18.37;13.30;;;10.30;99.90;;;;;;5054293;28;20032;-80
2024/02/14 07:45:14;;;;;;;19.85;12.48;;;10.30;99.90;;;;;;5036295;28;20028;-79
2024/02/14 07:47:40;;;;;;;20.00;13.23;;;10.40;99.90;;;;;;5053943;28;20024;-79
2024/02/14 07:50:07;;;;;;;21.40;13.03;;;10.30;99.90;;;;;;5033677;28;20484;-79
2024/02/14 07:52:33;;;;;;;24.00;13.03;;;10.40;99.90;;;;;;5054261;28;20154;-83
2024/02/14 07:54:58;;;;;;;22.73;14.50;;;10.40;99.90;;;;;;5051353;28;20103;-79
2024/02/14 07:57:25;;;;;;;18.77;13.20;;;10.40;99.90;;;;;;5054420;28;20377;-80
2024/02/14 07:59:51;;;;;;;23.47;14.23;;;10.50;99.90;;;;;;5036586;28;20032;-80
2024/02/14 08:02:20;;;;;;;20.05;12.70;;;10.40;99.90;;;;;;5036694;28;20075;-81
2024/02/14 08:04:47;;;;;;;20.30;14.45;;;10.50;99.90;;;;;;5054820;28;20040;-79
2024/02/14 08:07:13;;;;;;;19.05;13.52;;;10.50;99.90;;;;;;5036612;28;20017;-80
2024/02/14 08:09:39;;;;;;;20.55;13.85;;;10.50;99.90;;;;;;5053838;28;20539;-79
2024/02/14 08:12:05;;;;;;;19.90;12.23;;;10.50;99.90;;;;;;5036110;28;20400;-79
2024/02/14 08:14:31;;;;;;;19.10;13.60;;;10.50;99.90;;;;;;5054306;28;20096;-80
2024/02/14 08:16:57;;;;;;;23.15;13.65;;;10.50;99.90;;;;;;5054495;28;20029;-79
2024/02/14 08:19:22;;;;;;;17.48;12.85;;;10.60;99.90;;;;;;5054573;28;20099;-80
2024/02/14 08:21:48;;;;;;;17.95;13.52;;;10.60;99.90;;;;;;5036262;28;20059;-80
2024/02/14 08:24:14;;;;;;;21.13;13.80;;;10.60;99.90;;;;;;5054092;28;20017;-79
2024/02/14 08:26:40;;;;;;;18.92;12.35;;;10.60;99.90;;;;;;5047062;28;20029;-80
2024/02/14 08:29:05;;;;;;;21.45;12.23;;;10.60;99.90;;;;;;5048386;28;20021;-80
2024/02/14 08:31:32;;;;;;;19.70;12.90;;;10.60;99.90;;;;;;5054492;28;20029;-80
2024/02/14 08:33:58;;;;;;;17.83;10.98;;;10.60;99.90;;;;;;5053627;28;20056;-80
2024/02/14 08:36:25;;;;;;;13.87;10.27;;;10.60;99.90;;;;;;5036007;28;20028;-79
2024/02/14 08:38:51;;;;;;;17.70;12.25;;;10.60;99.90;;;;;;5035120;28;20013;-80
2024/02/14 08:41:18;;;;;;;16.15;11.23;;;10.60;99.90;;;;;;5053455;28;20044;-79
2024/02/14 08:43:44;;;;;;;17.15;10.63;;;10.60;99.90;;;;;;5053066;28;20013;-80
2024/02/14 08:46:11;;;;;;;14.57;10.07;;;10.70;99.90;;;;;;5035082;28;20017;-79
2024/02/14 08:48:41;;;;;;;17.35;10.85;;;10.70;99.90;;;;;;5052860;28;20040;-80
2024/02/14 08:51:07;;;;;;;14.82;10.65;;;10.70;99.90;;;;;;5050572;28;20025;-79
2024/02/14 08:53:35;;;;;;;16.90;12.00;;;10.70;99.90;;;;;;5035071;28;20021;-80
2024/02/14 08:56:00;;;;;;;17.90;11.82;;;10.70;99.90;;;;;;5053281;28;20016;-80
2024/02/14 08:58:26;;;;;;;13.45;9.90;;;10.70;99.90;;;;;;5035569;28;20021;-79
2024/02/14 09:00:53;;;;;;;14.00;10.15;;;10.70;99.90;;;;;;5053528;28;20025;-80
2024/02/14 09:03:19;;;;;;;17.48;10.98;;;10.70;99.90;;;;;;5053629;28;20123;-80
2024/02/14 09:05:46;;;;;;;16.02;10.48;;;10.80;99.90;;;;;;5053299;28;20491;-79
2024/02/14 09:08:12;;;;;;;17.40;12.20;;;10.80;99.90;;;;;;5052980;28;20059;-79
2024/02/14 09:10:38;;;;;;;14.80;10.35;;;10.80;99.90;;;;;;5035547;28;20029;-79
2024/02/14 09:13:07;;;;;;;13.73;9.15;;;10.80;99.90;;;;;;5035543;28;20040;-79
2024/02/14 09:15:32;;;;;;;15.00;10.15;;;10.90;99.90;;;;;;5034983;28;20031;-80
2024/02/14 09:18:00;;;;;;;18.02;11.40;;;10.90;99.90;;;;;;5049898;28;20513;-80
2024/02/14 09:20:25;;;;;;;16.95;10.48;;;11.00;99.90;;;;;;5052782;28;20029;-80
2024/02/14 09:22:51;;;;;;;13.82;8.82;;;10.90;99.90;;;;;;5052114;28;20468;-80
2024/02/14 09:25:19;;;;;;;16.50;9.77;;;11.00;99.90;;;;;;5029116;28;20980;-79
2024/02/14 09:27:47;;;;;;;13.23;9.13;;;11.00;99.90;;;;;;5048598;28;20083;-79
2024/02/14 09:30:13;;;;;;;14.57;8.95;;;11.00;99.90;;;;;;5052701;28;20025;-77
2024/02/14 09:32:39;;;;;;;15.07;8.85;;;11.00;99.90;;;;;;5034964;28;20028;-78
2024/02/14 09:35:06;;;;;;;12.38;8.32;;;11.00;99.90;;;;;;5034692;28;20497;-78
2024/02/14 09:37:32;;;;;;;14.45;8.45;;;11.00;99.90;;;;;;5034892;28;20472;-80
2024/02/14 09:39:58;;;;;;;14.25;9.10;;;11.00;99.90;;;;;;5052866;28;20017;-77
2024/02/14 09:42:50;;;;;;;15.50;9.45;;;11.00;99.90;;;;;;5052977;28;20025;-78
2024/02/14 09:45:16;;;;;;;19.77;11.13;;;11.00;99.90;;;;;;5014928;28;20040;-78
2024/02/14 09:47:42;;;;;;;16.67;11.43;;;11.00;99.90;;;;;;5048205;28;20439;-78
2024/02/14 09:50:10;;;;;;;16.48;11.02;;;11.00;99.90;;;;;;5034763;28;20116;-78
2024/02/14 09:52:38;;;;;;;19.50;11.52;;;11.00;99.90;;;;;;5052638;28;20099;-77
2024/02/14 09:55:05;;;;;;;18.35;10.63;;;11.00;99.90;;;;;;5034722;28;20028;-77
2024/02/14 09:57:31;;;;;;;14.90;9.75;;;11.10;99.90;;;;;;5051581;28;20112;-78
2024/02/14 10:00:00;;;;;;;13.77;10.75;;;11.10;99.90;;;;;;5052760;28;20528;-78
2024/02/14 10:02:25;;;;;;;17.55;10.90;;;11.10;99.90;;;;;;5052397;28;20123;-78
2024/02/14 10:04:51;;;;;;;18.13;11.98;;;11.10;99.90;;;;;;5034543;28;20556;-78
2024/02/14 10:07:17;;;;;;;14.45;10.55;;;11.10;99.90;;;;;;5051090;28;20516;-79
2024/02/14 10:09:43;;;;;;;20.42;11.85;;;11.20;99.90;;;;;;5034407;28;20076;-79
2024/02/14 10:12:09;;;;;;;20.42;11.70;;;11.20;99.90;;;;;;5052119;28;20021;-79
2024/02/14 10:14:36;;;;;;;22.15;11.40;;;11.30;99.90;;;;;;5034321;28;20029;-78
2024/02/14 10:17:05;;;;;;;23.90;12.45;;;11.30;99.90;;;;;;5052402;28;20024;-79
2024/02/14 10:19:31;;;;;;;19.75;11.20;;;11.30;99.90;;;;;;5052025;28;20033;-79
2024/02/14 10:22:02;;;;;;;15.25;10.18;;;11.40;99.90;;;;;;5034099;28;20557;-79
2024/02/14 10:24:29;;;;;;;17.88;11.80;;;11.40;99.90;;;;;;5052158;28;20346;-79
2024/02/14 10:26:57;;;;;;;14.52;10.07;;;11.50;99.90;;;;;;5052255;28;20021;-80
2024/02/14 10:29:26;;;;;;;16.25;9.07;;;11.50;99.90;;;;;;5032938;28;20021;-79
2024/02/14 10:31:52;;;;;;;18.00;10.25;;;11.50;99.90;;;;;;5052537;28;20052;-79
2024/02/14 10:34:20;;;;;;;20.40;9.93;;;11.50;99.90;;;;;;5033890;28;20515;-78
2024/02/14 10:36:46;;;;;;;15.70;10.30;;;11.60;99.90;;;;;;5052222;28;20060;-78
2024/02/14 10:39:12;;;;;;;18.27;10.75;;;11.60;99.90;;;;;;5033971;28;20049;-79
2024/02/14 10:41:37;;;;;;;17.63;9.10;;;11.70;99.90;;;;;;5034224;28;20021;-78
2024/02/14 10:44:07;;;;;;;13.55;8.93;;;11.70;99.90;;;;;;5034323;28;20018;-79
2024/02/14 10:46:37;;;;;;;14.63;8.30;;;11.70;99.90;;;;;;5052339;28;20013;-80
2024/02/14 10:49:04;;;;;;;16.20;9.02;;;11.70;99.90;;;;;;5033121;28;20070;-78
2024/02/14 10:51:35;;;;;;;13.27;9.38;;;11.80;99.90;;;;;;5052128;28;20029;-79
2024/02/14 10:54:11;;;;;;;13.82;9.00;;;11.80;99.90;;;;;;5034426;28;20122;-79
2024/02/14 10:56:43;;;;;;;17.15;8.60;;;11.80;99.90;;;;;;5051938;28;20029;-79
2024/02/14 10:59:11;;;;;;;12.00;8.13;;;11.80;99.90;;;;;;5033731;28;20013;-80
2024/02/14 11:01:38;;;;;;;14.93;9.40;;;11.80;99.90;;;;;;5051549;28;20028;-78
2024/02/14 11:04:04;;;;;;;14.00;8.23;;;11.80;99.90;;;;;;5033786;28;20020;-78
2024/02/14 11:06:30;;;;;;;15.25;8.35;;;11.80;99.90;;;;;;5034084;28;20013;-78
2024/02/14 11:09:06;;;;;;;14.40;8.25;;;11.90;99.90;;;;;;5055015;28;20124;-79
2024/02/14 11:11:32;;;;;;;15.90;8.60;;;11.90;99.90;;;;;;5055825;28;20028;-79
2024/02/14 11:13:58;;;;;;;16.40;8.63;;;11.90;99.90;;;;;;5037573;28;20100;-78
2024/02/14 11:16:27;;;;;;;16.55;8.82;;;11.90;99.90;;;;;;5037363;28;20208;-79
2024/02/14 11:18:54;;;;;;;13.93;8.35;;;12.00;99.90;;;;;;5055357;28;20500;-78
2024/02/14 11:21:20;;;;;;;13.23;8.10;;;12.00;99.90;;;;;;5055295;28;20061;-78
2024/02/14 11:23:54;;;;;;;12.88;7.85;;;12.00;99.90;;;;;;5055092;28;20049;-77
2024/02/14 11:26:23;;;;;;;15.07;7.93;;;12.00;99.90;;;;;;5037268;28;20104;-81
2024/02/14 11:28:49;;;;;;;11.90;7.18;;;12.10;99.90;;;;;;5055031;28;20048;-78
2024/02/14 11:31:17;;;;;;;14.88;7.40;;;12.10;99.90;;;;;;5055241;28;20104;-78
2024/02/14 11:33:46;;;;;;;14.90;8.90;;;12.00;99.90;;;;;;5054965;28;20029;-78
2024/02/14 11:36:14;;;;;;;11.63;7.68;;;12.10;99.90;;;;;;5055130;28;20107;-79
2024/02/14 11:38:41;;;;;;;15.93;8.15;;;12.10;99.90;;;;;;5037269;28;20025;-78
2024/02/14 11:41:06;;;;;;;11.77;7.25;;;12.10;99.90;;;;;;5054755;28;20123;-78
2024/02/14 11:43:32;;;;;;;13.32;7.63;;;12.10;99.90;;;;;;5055041;28;20060;-79
2024/02/14 11:45:58;;;;;;;12.90;7.70;;;12.20;99.90;;;;;;5036922;28;20433;-78
2024/02/14 11:48:24;;;;;;;13.45;7.13;;;12.10;99.90;;;;;;5054407;28;20035;-78
2024/02/14 11:50:52;;;;;;;14.10;6.85;;;12.10;99.90;;;;;;5036499;28;20492;-79
2024/02/14 11:53:21;;;;;;;14.65;6.95;;;12.10;99.90;;;;;;5036752;28;20025;-79
2024/02/14 11:55:47;;;;;;;11.88;7.22;;;12.10;99.90;;;;;;5036074;28;20036;-78
2024/02/14 11:58:14;;;;;;;11.00;7.10;;;12.10;99.90;;;;;;5049924;28;20024;-81
2024/02/14 12:00:44;;;;;;;13.25;7.20;;;12.10;99.90;;;;;;5035828;28;20017;-78
2024/02/14 12:03:16;;;;;;;13.23;7.22;;;12.10;99.90;;;;;;5035543;28;20075;-81
2024/02/14 12:05:44;;;;;;;11.60;7.00;;;12.10;99.90;;;;;;5048685;28;20014;-79
2024/02/14 12:08:10;;;;;;;15.27;7.45;;;12.10;99.90;;;;;;5035760;28;20025;-79
2024/02/14 12:10:37;;;;;;;14.23;7.65;;;12.10;99.90;;;;;;5035662;28;20025;-79
2024/02/14 12:13:13;;;;;;;13.80;7.55;;;12.10;99.90;;;;;;5035787;28;20021;-78
2024/02/14 12:15:46;;;;;;;10.38;6.35;;;12.10;99.90;;;;;;5032004;28;20065;-78
2024/02/14 12:18:13;;;;;;;12.05;6.38;;;12.10;99.90;;;;;;5031678;28;20021;-79
2024/02/14 12:20:45;;;;;;;10.05;5.95;;;12.10;99.90;;;;;;5034709;28;20162;-78
2024/02/14 12:23:17;;;;;;;11.27;6.10;;;12.10;99.90;;;;;;5033334;28;20025;-79
2024/02/14 12:25:43;;;;;;;9.77;5.43;;;12.20;99.90;;;;;;5035944;28;20092;-79
2024/02/14 12:28:17;;;;;;;10.95;6.28;;;12.20;99.90;;;;;;5053070;28;20112;-79
2024/02/14 12:30:45;;;;;;;8.50;5.35;;;12.20;99.90;;;;;;5035310;28;20017;-81
2024/02/14 12:33:14;;;;;;;9.50;6.13;;;12.20;99.90;;;;;;5036052;28;20021;-82
2024/02/14 12:35:44;;;;;;;11.45;5.72;;;12.20;99.90;;;;;;5053696;28;20060;-80